createdAt,value
2023-09-23T00:00:15.057Z,5.10
2023-09-23T00:02:45.644Z,6.03
2023-09-23T00:05:13.292Z,5.65
2023-09-23T00:07:41.344Z,4.85
2023-09-23T00:10:09.651Z,5.15
2023-09-23T00:12:37.344Z,5.65
2023-09-23T00:15:06.497Z,4.93
2023-09-23T00:17:33.807Z,5.82
2023-09-23T00:20:01.919Z,5.13
2023-09-23T00:22:28.590Z,5.45
2023-09-23T00:24:55.540Z,6.35
2023-09-23T00:27:23.100Z,5.93
2023-09-23T00:29:50.452Z,5.13
2023-09-23T00:32:18.834Z,5.82
2023-09-23T00:34:45.559Z,5.13
2023-09-23T00:37:12.386Z,5.47
2023-09-23T00:39:43.631Z,4.50
2023-09-23T00:42:13.541Z,5.32
2023-09-23T00:44:43.044Z,5.40
2023-09-23T00:47:11.233Z,4.55
2023-09-23T00:49:43.240Z,4.47
2023-09-23T00:52:10.100Z,5.47
2023-09-23T00:54:37.374Z,4.93
2023-09-23T00:57:07.570Z,3.97
2023-09-23T00:59:37.832Z,5.53
2023-09-23T01:02:06.291Z,4.28
2023-09-23T01:04:34.924Z,4.45
2023-09-23T01:07:10.667Z,4.63
2023-09-23T01:09:38.562Z,5.53
2023-09-23T01:12:05.878Z,4.75
2023-09-23T01:14:32.950Z,4.85
2023-09-23T01:16:59.878Z,4.57
2023-09-23T01:19:28.053Z,4.55
2023-09-23T01:21:57.538Z,4.63
2023-09-23T01:24:25.329Z,4.40
2023-09-23T01:26:52.253Z,4.80
2023-09-23T01:29:23.489Z,5.18
2023-09-23T01:32:21.283Z,4.78
2023-09-23T01:34:47.931Z,4.72
2023-09-23T01:37:14.559Z,5.32
2023-09-23T01:39:42.468Z,4.55
2023-09-23T01:42:09.262Z,5.38
2023-09-23T01:44:35.994Z,5.10
2023-09-23T01:47:02.769Z,5.07
2023-09-23T01:49:29.438Z,4.78
2023-09-23T01:51:56.215Z,5.45
2023-09-23T01:54:23.033Z,5.35
2023-09-23T01:56:49.920Z,5.18
2023-09-23T01:59:16.585Z,4.80
2023-09-23T02:01:45.258Z,5.10
2023-09-23T02:04:12.340Z,5.15
2023-09-23T02:06:39.947Z,6.30
2023-09-23T02:09:06.586Z,5.25
2023-09-23T02:11:33.223Z,5.43
2023-09-23T02:13:59.932Z,6.40
2023-09-23T02:16:26.643Z,5.88
2023-09-23T02:18:53.280Z,6.30
2023-09-23T02:21:20.476Z,6.35
2023-09-23T02:23:47.753Z,7.05
2023-09-23T02:26:14.381Z,6.53
2023-09-23T02:28:41.667Z,6.22
2023-09-23T02:31:09.011Z,6.07
2023-09-23T02:33:35.668Z,6.00
2023-09-23T02:36:02.271Z,6.13
2023-09-23T02:38:29.172Z,6.72
2023-09-23T02:41:01.587Z,6.15
2023-09-23T02:43:28.196Z,7.03
2023-09-23T02:45:57.630Z,5.88
2023-09-23T02:48:25.563Z,6.05
2023-09-23T02:50:52.215Z,6.13
2023-09-23T02:53:18.993Z,6.57
2023-09-23T02:55:53.263Z,5.57
2023-09-23T02:58:20.001Z,6.32
2023-09-23T03:00:58.661Z,6.80
2023-09-23T03:03:25.908Z,6.45
2023-09-23T03:05:56.713Z,6.55
2023-09-23T03:08:26.405Z,6.55
2023-09-23T03:10:53.409Z,5.97
2023-09-23T03:13:20.305Z,6.90
2023-09-23T03:15:54.617Z,7.13
2023-09-23T03:18:35.315Z,5.88
2023-09-23T03:21:10.022Z,5.65
2023-09-23T03:23:43.294Z,6.13
2023-09-23T03:26:11.146Z,6.57
2023-09-23T03:28:40.073Z,6.90
2023-09-23T03:31:10.427Z,6.85
2023-09-23T03:33:38.391Z,6.32
2023-09-23T03:36:11.007Z,6.80
2023-09-23T03:38:38.895Z,6.22
2023-09-23T03:41:05.602Z,6.20
2023-09-23T03:43:32.297Z,6.03
2023-09-23T03:45:59.098Z,7.35
2023-09-23T03:48:26.996Z,6.40
2023-09-23T03:50:54.296Z,6.22
2023-09-23T03:53:25.074Z,5.63
2023-09-23T03:55:56.493Z,6.22
2023-09-23T03:58:23.746Z,6.25
2023-09-23T04:00:50.883Z,6.63
2023-09-23T04:03:19.545Z,6.65
2023-09-23T04:05:55.266Z,6.25
2023-09-23T04:08:22.008Z,7.40
2023-09-23T04:10:48.765Z,7.22
2023-09-23T04:13:15.752Z,6.93
2023-09-23T04:15:43.211Z,6.30
2023-09-23T04:18:10.634Z,6.55
2023-09-23T04:20:37.534Z,6.13
2023-09-23T04:23:04.625Z,5.68
2023-09-23T04:25:31.744Z,6.28
2023-09-23T04:27:58.420Z,7.28
2023-09-23T04:30:27.290Z,9.55
2023-09-23T04:32:56.678Z,7.00
2023-09-23T04:35:23.561Z,7.88
2023-09-23T04:37:50.675Z,6.93
2023-09-23T04:40:19.453Z,7.20
2023-09-23T04:42:46.155Z,6.43
2023-09-23T04:45:13.260Z,6.40
2023-09-23T04:47:41.574Z,6.35
2023-09-23T04:50:13.443Z,6.60
2023-09-23T04:52:42.157Z,6.65
2023-09-23T04:55:09.368Z,5.90
2023-09-23T04:57:37.321Z,6.22
2023-09-23T05:00:06.076Z,5.55
2023-09-23T05:02:33.006Z,6.90
2023-09-23T05:04:59.958Z,6.22
2023-09-23T05:07:27.012Z,6.25
2023-09-23T05:09:56.922Z,6.63
2023-09-23T05:12:24.965Z,5.93
2023-09-23T05:14:54.083Z,7.32
2023-09-23T05:17:23.114Z,6.00
2023-09-23T05:19:49.960Z,5.00
2023-09-23T05:22:17.854Z,7.07
2023-09-23T05:24:48.816Z,5.30
2023-09-23T05:27:16.046Z,5.82
2023-09-23T05:29:44.644Z,5.32
2023-09-23T05:32:12.094Z,4.88
2023-09-23T05:34:43.212Z,6.05
2023-09-23T05:37:12.739Z,5.00
2023-09-23T05:39:46.046Z,5.53
2023-09-23T05:42:17.153Z,4.95
2023-09-23T05:44:45.413Z,5.60
2023-09-23T05:47:12.306Z,4.90
2023-09-23T05:49:40.093Z,5.18
2023-09-23T05:52:07.437Z,5.25
2023-09-23T05:54:34.749Z,4.85
2023-09-23T05:57:01.637Z,4.93
2023-09-23T05:59:28.258Z,5.50
2023-09-23T06:01:55.349Z,5.03
2023-09-23T06:04:22.123Z,5.35
2023-09-23T06:06:48.752Z,4.03
2023-09-23T06:09:16.383Z,5.03
2023-09-23T06:11:44.643Z,5.47
2023-09-23T06:14:13.013Z,5.30
2023-09-23T06:16:39.948Z,7.30
2023-09-23T06:19:08.125Z,6.85
2023-09-23T06:21:36.297Z,6.07
2023-09-23T06:24:03.888Z,6.75
2023-09-23T06:26:31.347Z,6.05
2023-09-23T06:28:58.111Z,6.85
2023-09-23T06:31:25.114Z,5.25
2023-09-23T06:33:51.765Z,5.78
2023-09-23T06:36:18.378Z,5.60
2023-09-23T06:38:45.103Z,4.38
2023-09-23T06:41:11.763Z,5.30
2023-09-23T06:43:38.482Z,4.50
2023-09-23T06:46:05.141Z,5.20
2023-09-23T06:48:31.920Z,4.45
2023-09-23T06:51:03.883Z,5.13
2023-09-23T06:53:31.793Z,4.65
2023-09-23T06:55:58.542Z,4.53
2023-09-23T06:58:25.194Z,4.57
2023-09-23T07:00:51.942Z,5.10
2023-09-23T07:03:18.842Z,5.13
2023-09-23T07:05:45.872Z,4.50
2023-09-23T07:08:12.918Z,4.63
2023-09-23T07:10:40.818Z,5.97
2023-09-23T07:13:09.324Z,6.53
2023-09-23T07:15:39.741Z,5.53
2023-09-23T07:18:07.158Z,5.97
2023-09-23T07:20:34.801Z,5.22
2023-09-23T07:23:02.277Z,5.65
2023-09-23T07:25:29.201Z,5.50
2023-09-23T07:27:56.006Z,5.15
2023-09-23T07:30:22.751Z,5.53
2023-09-23T07:32:49.481Z,4.97
2023-09-23T07:35:16.692Z,4.35
2023-09-23T07:37:43.475Z,5.43
2023-09-23T07:40:10.612Z,6.18
2023-09-23T07:42:37.339Z,5.35
2023-09-23T07:45:04.391Z,5.93
2023-09-23T07:47:31.162Z,5.65
2023-09-23T07:49:59.286Z,4.82
2023-09-23T07:52:25.944Z,6.85
2023-09-23T07:54:52.604Z,5.78
2023-09-23T07:57:19.286Z,4.80
2023-09-23T07:59:46.657Z,5.65
2023-09-23T08:02:13.322Z,4.50
2023-09-23T08:04:40.107Z,5.22
2023-09-23T08:07:07.702Z,5.43
2023-09-23T08:09:34.427Z,5.32
2023-09-23T08:12:01.098Z,5.93
2023-09-23T08:14:28.014Z,5.03
2023-09-23T08:16:55.808Z,5.65
2023-09-23T08:19:22.622Z,4.72
2023-09-23T08:21:49.222Z,5.43
2023-09-23T08:24:16.123Z,5.18
2023-09-23T08:26:43.053Z,4.60
2023-09-23T08:29:10.933Z,4.13
2023-09-23T08:31:38.179Z,4.68
2023-09-23T08:34:10.324Z,4.68
2023-09-23T08:36:37.909Z,4.75
2023-09-23T08:39:10.812Z,4.55
2023-09-23T08:41:37.665Z,4.78
2023-09-23T08:44:05.968Z,4.50
2023-09-23T08:46:33.176Z,3.92
2023-09-23T08:49:00.894Z,3.85
2023-09-23T08:51:28.858Z,3.78
2023-09-23T08:53:56.609Z,4.30
2023-09-23T08:56:23.548Z,4.18
2023-09-23T08:58:50.678Z,4.03
2023-09-23T09:01:18.433Z,3.95
2023-09-23T09:03:45.972Z,4.22
2023-09-23T09:06:30.738Z,4.78
2023-09-23T09:08:57.684Z,4.10
2023-09-23T09:11:25.390Z,4.50
2023-09-23T09:13:52.410Z,5.32
2023-09-23T09:16:20.322Z,4.65
2023-09-23T09:18:51.636Z,4.60
2023-09-23T09:21:18.320Z,4.03
2023-09-23T09:23:44.979Z,4.18
2023-09-23T09:26:11.794Z,4.43
2023-09-23T09:28:38.958Z,3.55
2023-09-23T09:31:10.974Z,4.10
2023-09-23T09:33:39.234Z,4.90
2023-09-23T09:36:08.966Z,3.67
2023-09-23T09:38:38.308Z,4.40
2023-09-23T09:41:07.146Z,4.15
2023-09-23T09:43:34.886Z,4.28
2023-09-23T09:46:10.194Z,4.00
2023-09-23T09:48:42.999Z,4.85
2023-09-23T09:51:14.781Z,4.60
2023-09-23T09:53:42.623Z,4.35
2023-09-23T09:56:10.314Z,4.00
2023-09-23T09:58:42.114Z,4.13
2023-09-23T10:01:14.492Z,3.83
2023-09-23T10:03:44.432Z,3.53
2023-09-23T10:06:20.152Z,4.38
2023-09-23T10:08:49.872Z,4.90
2023-09-23T10:11:17.880Z,4.68
2023-09-23T10:13:45.085Z,3.85
2023-09-23T10:16:13.892Z,3.65
2023-09-23T10:18:42.466Z,3.78
2023-09-23T10:21:21.756Z,3.95
2023-09-23T10:23:50.742Z,3.97
2023-09-23T10:26:20.385Z,4.72
2023-09-23T10:29:00.684Z,4.50
2023-09-23T10:31:28.972Z,4.18
2023-09-23T10:33:56.642Z,4.32
2023-09-23T10:36:24.116Z,4.50
2023-09-23T10:38:51.423Z,4.47
2023-09-23T10:41:19.396Z,4.70
2023-09-23T10:43:55.146Z,4.00
2023-09-23T10:46:21.990Z,4.13
2023-09-23T10:48:49.023Z,3.72
2023-09-23T10:51:15.932Z,4.95
2023-09-23T10:53:43.337Z,3.50
2023-09-23T10:56:12.090Z,3.47
2023-09-23T10:58:39.956Z,4.55
2023-09-23T11:01:08.055Z,3.85
2023-09-23T11:03:42.329Z,3.83
2023-09-23T11:06:09.744Z,3.60
2023-09-23T11:08:37.499Z,3.53
2023-09-23T11:11:04.398Z,4.22
2023-09-23T11:13:34.899Z,4.30
2023-09-23T11:16:10.213Z,4.27
2023-09-23T11:18:38.707Z,3.45
2023-09-23T11:21:06.181Z,3.47
2023-09-23T11:23:34.169Z,3.15
2023-09-23T11:26:01.012Z,3.70
2023-09-23T11:28:28.841Z,4.05
2023-09-23T11:30:57.441Z,4.20
2023-09-23T11:33:24.479Z,3.67
2023-09-23T11:35:51.213Z,4.28
2023-09-23T11:38:19.979Z,3.13
2023-09-23T11:40:47.911Z,4.30
2023-09-23T11:43:14.612Z,3.60
2023-09-23T11:45:42.511Z,3.95
2023-09-23T11:48:09.606Z,3.88
2023-09-23T11:50:37.454Z,4.93
2023-09-23T11:53:04.777Z,4.18
2023-09-23T11:55:33.765Z,3.50
2023-09-23T11:58:01.347Z,3.75
2023-09-23T12:00:28.092Z,3.50
2023-09-23T12:02:55.033Z,4.55
2023-09-23T12:05:22.620Z,3.40
2023-09-23T12:07:49.437Z,3.85
2023-09-23T12:10:16.313Z,3.95
2023-09-23T12:12:46.694Z,5.13
2023-09-23T12:15:13.512Z,4.20
2023-09-23T12:17:40.326Z,4.45
2023-09-23T12:20:13.091Z,3.63
2023-09-23T12:22:40.327Z,3.33
2023-09-23T12:25:08.021Z,3.17
2023-09-23T12:27:35.195Z,3.40
2023-09-23T12:30:02.185Z,3.63
2023-09-23T12:32:29.966Z,3.78
2023-09-23T12:35:00.432Z,3.88
2023-09-23T12:37:28.599Z,4.10
2023-09-23T12:39:57.036Z,3.72
2023-09-23T12:42:24.064Z,3.58
2023-09-23T12:44:50.697Z,4.32
2023-09-23T12:47:17.421Z,3.80
2023-09-23T12:49:44.976Z,4.05
2023-09-23T12:52:12.660Z,4.30
2023-09-23T12:54:39.487Z,3.72
2023-09-23T12:57:06.176Z,4.13
2023-09-23T12:59:33.165Z,4.20
2023-09-23T13:01:59.875Z,3.83
2023-09-23T13:04:26.625Z,4.90
2023-09-23T13:06:53.348Z,3.75
2023-09-23T13:09:20.169Z,4.03
2023-09-23T13:11:46.806Z,5.43
2023-09-23T13:14:13.673Z,5.15
2023-09-23T13:16:40.363Z,4.03
2023-09-23T13:19:07.027Z,3.92
2023-09-23T13:21:33.829Z,4.30
2023-09-23T13:24:01.440Z,4.80
2023-09-23T13:26:28.193Z,5.22
2023-09-23T13:28:55.003Z,4.45
2023-09-23T13:31:21.835Z,4.88
2023-09-23T13:33:49.913Z,4.28
2023-09-23T13:36:16.718Z,4.90
2023-09-23T13:38:43.619Z,4.50
2023-09-23T13:41:10.510Z,4.20
2023-09-23T13:43:37.151Z,3.75
2023-09-23T13:46:03.977Z,4.97
2023-09-23T13:48:30.927Z,4.28
2023-09-23T13:50:57.688Z,4.15
2023-09-23T13:53:24.312Z,3.92
2023-09-23T13:55:51.022Z,5.00
2023-09-23T13:58:17.891Z,4.60
2023-09-23T14:00:44.631Z,4.55
2023-09-23T14:03:11.288Z,5.60
2023-09-23T14:05:38.044Z,4.50
2023-09-23T14:08:05.108Z,4.43
2023-09-23T14:10:32.093Z,5.00
2023-09-23T14:12:58.741Z,3.13
2023-09-23T14:15:26.579Z,3.83
2023-09-23T14:17:53.297Z,4.55
2023-09-23T14:20:20.111Z,4.50
2023-09-23T14:22:49.370Z,3.95
2023-09-23T14:25:18.437Z,4.22
2023-09-23T14:27:45.152Z,4.22
2023-09-23T14:30:12.511Z,4.47
2023-09-23T14:32:39.669Z,3.67
2023-09-23T14:35:06.923Z,3.90
2023-09-23T14:37:34.510Z,4.13
2023-09-23T14:40:01.726Z,4.47
2023-09-23T14:42:28.728Z,4.00
2023-09-23T14:44:55.392Z,4.53
2023-09-23T14:47:22.277Z,4.35
2023-09-23T14:49:49.012Z,4.95
2023-09-23T14:52:15.722Z,4.47
2023-09-23T14:54:42.942Z,4.97
2023-09-23T14:57:09.722Z,3.97
2023-09-23T14:59:37.120Z,4.75
2023-09-23T15:02:05.074Z,4.45
2023-09-23T15:04:32.114Z,4.95
2023-09-23T15:07:00.868Z,4.20
2023-09-23T15:09:28.157Z,5.25
2023-09-23T15:11:55.298Z,4.30
2023-09-23T15:14:22.160Z,5.32
2023-09-23T15:16:51.491Z,4.50
2023-09-23T15:19:21.309Z,5.72
2023-09-23T15:21:48.068Z,4.97
2023-09-23T15:24:18.204Z,5.20
2023-09-23T15:26:45.341Z,5.45
2023-09-23T15:29:12.380Z,3.85
2023-09-23T15:31:39.100Z,4.90
2023-09-23T15:34:06.504Z,4.57
2023-09-23T15:36:33.464Z,4.95
2023-09-23T15:39:00.427Z,6.20
2023-09-23T15:41:27.258Z,4.57
2023-09-23T15:43:53.991Z,4.82
2023-09-23T15:46:20.681Z,5.07
2023-09-23T15:48:47.534Z,4.68
2023-09-23T15:51:17.848Z,4.57
2023-09-23T15:53:45.698Z,4.18
2023-09-23T15:56:13.250Z,4.65
2023-09-23T15:58:40.666Z,6.00
2023-09-23T16:01:07.851Z,5.10
2023-09-23T16:03:35.290Z,6.13
2023-09-23T16:06:02.521Z,5.30
2023-09-23T16:08:30.041Z,5.68
2023-09-23T16:10:56.790Z,5.07
2023-09-23T16:13:23.584Z,6.28
2023-09-23T16:15:50.286Z,4.47
2023-09-23T16:18:19.976Z,4.47
2023-09-23T16:20:48.735Z,4.00
2023-09-23T16:23:15.505Z,6.03
2023-09-23T16:25:42.267Z,5.47
2023-09-23T16:28:08.925Z,5.05
2023-09-23T16:30:35.655Z,4.10
2023-09-23T16:33:02.689Z,4.20
2023-09-23T16:35:29.508Z,4.80
2023-09-23T16:37:56.275Z,4.78
2023-09-23T16:40:22.963Z,4.07
2023-09-23T16:42:49.728Z,4.30
2023-09-23T16:45:16.554Z,4.43
2023-09-23T16:47:45.136Z,4.82
2023-09-23T16:50:12.221Z,4.65
2023-09-23T16:52:39.062Z,4.50
2023-09-23T16:55:06.027Z,5.65
2023-09-23T16:57:32.885Z,4.90
2023-09-23T16:59:59.574Z,5.60
2023-09-23T17:02:26.722Z,4.22
2023-09-23T17:04:53.885Z,4.50
2023-09-23T17:07:20.581Z,4.18
2023-09-23T17:09:47.465Z,4.53
2023-09-23T17:12:14.396Z,4.70
2023-09-23T17:14:41.276Z,4.43
2023-09-23T17:17:08.673Z,4.25
2023-09-23T17:19:35.878Z,5.50
2023-09-23T17:22:02.603Z,3.72
2023-09-23T17:24:30.562Z,4.72
2023-09-23T17:26:57.593Z,4.82
2023-09-23T17:29:24.500Z,4.43
2023-09-23T17:31:51.399Z,4.35
2023-09-23T17:34:18.334Z,4.47
2023-09-23T17:36:45.023Z,4.63
2023-09-23T17:39:12.142Z,4.97
2023-09-23T17:41:39.603Z,5.13
2023-09-23T17:44:07.230Z,5.05
2023-09-23T17:46:34.517Z,6.07
2023-09-23T17:49:01.273Z,5.35
2023-09-23T17:51:28.238Z,6.18
2023-09-23T17:53:54.945Z,4.38
2023-09-23T17:56:23.328Z,5.15
2023-09-23T17:58:50.336Z,4.43
2023-09-23T18:01:17.393Z,4.60
2023-09-23T18:03:44.495Z,4.80
2023-09-23T18:06:11.427Z,4.13
2023-09-23T18:08:38.240Z,5.72
2023-09-23T18:11:05.023Z,4.28
2023-09-23T18:13:32.382Z,3.78
2023-09-23T18:15:59.066Z,3.42
2023-09-23T18:18:27.881Z,3.72
2023-09-23T18:20:56.005Z,4.47
2023-09-23T18:23:22.813Z,3.92
2023-09-23T18:25:50.000Z,4.82
2023-09-23T18:28:16.720Z,3.83
2023-09-23T18:30:43.399Z,4.60
2023-09-23T18:33:10.236Z,3.75
2023-09-23T18:35:37.557Z,4.22
2023-09-23T18:38:04.430Z,4.20
2023-09-23T18:40:31.425Z,4.55
2023-09-23T18:42:58.056Z,4.03
2023-09-23T18:45:24.959Z,4.28
2023-09-23T18:48:00.632Z,4.15
2023-09-23T18:50:34.743Z,3.53
2023-09-23T18:53:01.526Z,3.45
2023-09-23T18:55:28.513Z,3.78
2023-09-23T18:57:55.280Z,3.33
2023-09-23T19:00:22.269Z,3.78
2023-09-23T19:02:49.201Z,3.50
2023-09-23T19:05:16.561Z,4.05
2023-09-23T19:07:43.276Z,3.78
2023-09-23T19:10:12.052Z,4.40
2023-09-23T19:12:39.184Z,4.70
2023-09-23T19:15:07.292Z,3.60
2023-09-23T19:17:34.205Z,3.53
2023-09-23T19:20:01.122Z,4.15
2023-09-23T19:22:27.928Z,4.22
2023-09-23T19:24:55.142Z,3.80
2023-09-23T19:27:21.983Z,3.78
2023-09-23T19:29:51.073Z,4.03
2023-09-23T19:32:18.024Z,3.20
2023-09-23T19:34:44.902Z,3.75
2023-09-23T19:37:11.588Z,3.35
2023-09-23T19:39:38.495Z,3.10
2023-09-23T19:42:05.826Z,4.30
2023-09-23T19:44:33.171Z,3.80
2023-09-23T19:47:02.065Z,4.50
2023-09-23T19:49:29.248Z,4.47
2023-09-23T19:51:56.493Z,3.85
2023-09-23T19:54:24.124Z,3.58
2023-09-23T19:56:51.059Z,3.42
2023-09-23T19:59:21.031Z,4.03
2023-09-23T20:01:48.309Z,3.05
2023-09-23T20:04:15.334Z,4.57
2023-09-23T20:06:42.671Z,3.88
2023-09-23T20:09:10.579Z,3.83
2023-09-23T20:11:37.470Z,4.13
2023-09-23T20:14:04.218Z,4.43
2023-09-23T20:16:32.990Z,4.70
2023-09-23T20:19:00.368Z,4.25
2023-09-23T20:21:27.499Z,4.00
2023-09-23T20:23:54.323Z,3.92
2023-09-23T20:26:22.317Z,4.22
2023-09-23T20:28:49.329Z,4.57
2023-09-23T20:31:16.703Z,3.58
2023-09-23T20:33:44.151Z,3.67
2023-09-23T20:36:10.936Z,3.35
2023-09-23T20:38:40.290Z,4.30
2023-09-23T20:41:07.813Z,3.20
2023-09-23T20:43:38.915Z,3.97
2023-09-23T20:46:12.494Z,4.18
2023-09-23T20:48:39.425Z,3.80
2023-09-23T20:51:06.190Z,4.70
2023-09-23T20:53:35.709Z,3.90
2023-09-23T20:56:06.724Z,4.55
2023-09-23T21:01:01.959Z,4.30
2023-09-23T21:03:28.736Z,4.10
2023-09-23T21:05:55.910Z,4.97
2023-09-23T21:08:22.852Z,4.00
2023-09-23T21:10:49.645Z,3.60
2023-09-23T21:13:16.293Z,3.75
2023-09-23T21:15:43.180Z,3.63
2023-09-23T21:18:10.937Z,4.22
2023-09-23T21:20:38.498Z,4.72
2023-09-23T21:23:05.414Z,5.45
2023-09-23T21:25:32.342Z,3.70
2023-09-23T21:27:59.270Z,4.22
2023-09-23T21:30:26.174Z,4.40
2023-09-23T21:32:52.910Z,4.40
2023-09-23T21:35:19.660Z,3.78
2023-09-23T21:37:46.337Z,4.25
2023-09-23T21:40:12.996Z,4.07
2023-09-23T21:42:39.642Z,4.00
2023-09-23T21:45:06.898Z,4.72
2023-09-23T21:47:33.628Z,4.22
2023-09-23T21:50:00.346Z,3.78
2023-09-23T21:52:27.285Z,3.60
2023-09-23T21:54:53.946Z,4.15
2023-09-23T21:57:20.724Z,3.45
2023-09-23T21:59:47.494Z,4.07
2023-09-23T22:02:14.416Z,3.45
2023-09-23T22:04:41.246Z,3.83
2023-09-23T22:07:07.961Z,4.30
2023-09-23T22:09:34.609Z,4.10
2023-09-23T22:12:01.297Z,3.42
2023-09-23T22:14:28.068Z,4.07
2023-09-23T22:16:57.548Z,3.78
2023-09-23T22:19:24.795Z,3.78
2023-09-23T22:21:52.645Z,4.35
2023-09-23T22:24:22.654Z,3.75
2023-09-23T22:26:54.503Z,4.05
2023-09-23T22:29:21.589Z,4.20
2023-09-23T22:31:48.633Z,4.18
2023-09-23T22:34:15.373Z,3.58
2023-09-23T22:36:42.754Z,4.05
2023-09-23T22:39:13.363Z,4.22
2023-09-23T22:41:40.614Z,3.28
2023-09-23T22:44:07.923Z,3.88
2023-09-23T22:46:34.809Z,4.35
2023-09-23T22:49:01.430Z,4.00
2023-09-23T22:51:29.335Z,4.65
2023-09-23T22:53:57.040Z,4.25
2023-09-23T22:56:24.363Z,4.05
2023-09-23T22:58:52.175Z,3.50
2023-09-23T23:01:19.700Z,3.85
2023-09-23T23:03:46.842Z,3.90
2023-09-23T23:06:13.856Z,4.15
2023-09-23T23:08:40.609Z,4.30
2023-09-23T23:11:08.762Z,4.68
2023-09-23T23:13:38.598Z,4.15
2023-09-23T23:16:10.037Z,4.28
2023-09-23T23:18:36.899Z,4.38
2023-09-23T23:21:04.786Z,5.30
2023-09-23T23:23:32.385Z,3.75
2023-09-23T23:26:00.510Z,4.10
2023-09-23T23:28:28.465Z,4.78
2023-09-23T23:30:55.341Z,4.40
2023-09-23T23:33:22.489Z,4.22
2023-09-23T23:35:49.494Z,3.97
2023-09-23T23:38:16.297Z,4.25
2023-09-23T23:40:43.173Z,3.95
2023-09-23T23:43:10.628Z,3.60
2023-09-23T23:45:37.406Z,3.75
2023-09-23T23:48:04.575Z,3.97
2023-09-23T23:50:31.764Z,4.45
2023-09-23T23:52:58.449Z,3.75
2023-09-23T23:55:26.745Z,4.57
2023-09-23T23:57:53.646Z,3.78
